sensor_id;sensor_type;location;lat;lon;timestamp;temperature;humidity
8105;DHT22;4095;48.942;9.104;2022-07-06T00:01:00;20.40;89.20
8105;DHT22;4095;48.942;9.104;2022-07-06T00:03:26;20.50;89.00
8105;DHT22;4095;48.942;9.104;2022-07-06T00:05:51;20.40;88.80
8105;DHT22;4095;48.942;9.104;2022-07-06T00:08:17;20.40;89.30
8105;DHT22;4095;48.942;9.104;2022-07-06T00:10:42;20.40;89.20
8105;DHT22;4095;48.942;9.104;2022-07-06T00:13:09;20.30;88.80
8105;DHT22;4095;48.942;9.104;2022-07-06T00:15:34;20.30;88.90
8105;DHT22;4095;48.942;9.104;2022-07-06T00:18:00;20.30;89.20
8105;DHT22;4095;48.942;9.104;2022-07-06T00:20:26;20.30;89.20
8105;DHT22;4095;48.942;9.104;2022-07-06T00:22:51;20.30;89.30
8105;DHT22;4095;48.942;9.104;2022-07-06T00:25:17;20.30;89.20
8105;DHT22;4095;48.942;9.104;2022-07-06T00:27:43;20.30;89.80
8105;DHT22;4095;48.942;9.104;2022-07-06T00:30:08;20.30;89.80
8105;DHT22;4095;48.942;9.104;2022-07-06T00:32:34;20.20;88.70
8105;DHT22;4095;48.942;9.104;2022-07-06T00:35:00;20.20;89.50
8105;DHT22;4095;48.942;9.104;2022-07-06T00:37:25;20.20;89.30
8105;DHT22;4095;48.942;9.104;2022-07-06T00:39:51;20.20;89.50
8105;DHT22;4095;48.942;9.104;2022-07-06T00:42:16;20.10;89.80
8105;DHT22;4095;48.942;9.104;2022-07-06T00:44:42;20.10;90.10
8105;DHT22;4095;48.942;9.104;2022-07-06T00:47:07;20.10;89.90
8105;DHT22;4095;48.942;9.104;2022-07-06T00:49:33;20.00;90.00
8105;DHT22;4095;48.942;9.104;2022-07-06T00:52:18;20.00;90.00
8105;DHT22;4095;48.942;9.104;2022-07-06T00:54:44;19.90;90.00
8105;DHT22;4095;48.942;9.104;2022-07-06T00:57:10;20.00;89.60
8105;DHT22;4095;48.942;9.104;2022-07-06T00:59:36;20.00;89.20
8105;DHT22;4095;48.942;9.104;2022-07-06T01:02:02;20.00;90.00
8105;DHT22;4095;48.942;9.104;2022-07-06T01:04:27;19.90;89.70
8105;DHT22;4095;48.942;9.104;2022-07-06T01:06:53;19.90;89.80
8105;DHT22;4095;48.942;9.104;2022-07-06T01:09:19;19.90;90.20
8105;DHT22;4095;48.942;9.104;2022-07-06T01:11:45;19.80;89.90
8105;DHT22;4095;48.942;9.104;2022-07-06T01:14:12;19.80;89.60
8105;DHT22;4095;48.942;9.104;2022-07-06T01:16:39;19.70;89.80
8105;DHT22;4095;48.942;9.104;2022-07-06T01:19:04;19.60;90.00
8105;DHT22;4095;48.942;9.104;2022-07-06T01:21:30;19.70;90.10
8105;DHT22;4095;48.942;9.104;2022-07-06T01:23:56;19.60;89.80
8105;DHT22;4095;48.942;9.104;2022-07-06T01:26:21;19.60;89.90
8105;DHT22;4095;48.942;9.104;2022-07-06T01:28:51;19.60;90.00
8105;DHT22;4095;48.942;9.104;2022-07-06T01:31:22;19.50;89.80
8105;DHT22;4095;48.942;9.104;2022-07-06T01:33:49;19.40;90.00
8105;DHT22;4095;48.942;9.104;2022-07-06T01:36:15;19.30;90.10
8105;DHT22;4095;48.942;9.104;2022-07-06T01:38:52;19.30;90.30
8105;DHT22;4095;48.942;9.104;2022-07-06T01:41:19;19.30;90.30
8105;DHT22;4095;48.942;9.104;2022-07-06T01:43:45;19.30;90.20
8105;DHT22;4095;48.942;9.104;2022-07-06T01:46:11;19.30;90.30
8105;DHT22;4095;48.942;9.104;2022-07-06T01:48:37;19.30;90.40
8105;DHT22;4095;48.942;9.104;2022-07-06T01:51:04;19.30;90.20
8105;DHT22;4095;48.942;9.104;2022-07-06T01:53:29;19.20;90.20
8105;DHT22;4095;48.942;9.104;2022-07-06T01:55:55;19.20;90.10
8105;DHT22;4095;48.942;9.104;2022-07-06T01:58:21;19.20;90.10
8105;DHT22;4095;48.942;9.104;2022-07-06T02:00:46;19.20;90.10
8105;DHT22;4095;48.942;9.104;2022-07-06T02:03:12;19.20;90.20
8105;DHT22;4095;48.942;9.104;2022-07-06T02:05:38;19.10;90.10
8105;DHT22;4095;48.942;9.104;2022-07-06T02:08:03;19.10;90.10
8105;DHT22;4095;48.942;9.104;2022-07-06T02:10:29;19.10;90.20
8105;DHT22;4095;48.942;9.104;2022-07-06T02:12:54;19.10;90.00
8105;DHT22;4095;48.942;9.104;2022-07-06T02:15:20;19.10;90.00
8105;DHT22;4095;48.942;9.104;2022-07-06T02:17:46;19.10;90.30
8105;DHT22;4095;48.942;9.104;2022-07-06T02:20:11;19.00;89.90
8105;DHT22;4095;48.942;9.104;2022-07-06T02:22:37;19.00;89.70
8105;DHT22;4095;48.942;9.104;2022-07-06T02:25:03;18.90;89.80
8105;DHT22;4095;48.942;9.104;2022-07-06T02:27:29;18.90;90.00
8105;DHT22;4095;48.942;9.104;2022-07-06T02:29:54;18.90;90.00
8105;DHT22;4095;48.942;9.104;2022-07-06T02:32:20;18.90;90.30
8105;DHT22;4095;48.942;9.104;2022-07-06T02:34:45;18.90;90.10
8105;DHT22;4095;48.942;9.104;2022-07-06T02:37:11;18.90;90.00
8105;DHT22;4095;48.942;9.104;2022-07-06T02:39:36;18.90;90.30
8105;DHT22;4095;48.942;9.104;2022-07-06T02:42:02;18.90;90.40
8105;DHT22;4095;48.942;9.104;2022-07-06T02:44:28;18.90;90.10
8105;DHT22;4095;48.942;9.104;2022-07-06T02:46:53;18.90;90.10
8105;DHT22;4095;48.942;9.104;2022-07-06T02:49:19;18.80;90.00
8105;DHT22;4095;48.942;9.104;2022-07-06T02:51:45;18.80;90.30
8105;DHT22;4095;48.942;9.104;2022-07-06T02:54:10;18.80;90.30
8105;DHT22;4095;48.942;9.104;2022-07-06T02:56:36;18.70;90.30
8105;DHT22;4095;48.942;9.104;2022-07-06T02:59:01;18.80;90.20
8105;DHT22;4095;48.942;9.104;2022-07-06T03:01:27;18.80;90.60
8105;DHT22;4095;48.942;9.104;2022-07-06T03:03:53;18.70;90.30
8105;DHT22;4095;48.942;9.104;2022-07-06T03:06:19;18.70;90.40
8105;DHT22;4095;48.942;9.104;2022-07-06T03:08:44;18.70;90.60
8105;DHT22;4095;48.942;9.104;2022-07-06T03:11:10;18.80;90.40
8105;DHT22;4095;48.942;9.104;2022-07-06T03:13:35;18.70;90.30
8105;DHT22;4095;48.942;9.104;2022-07-06T03:16:01;18.70;90.30
8105;DHT22;4095;48.942;9.104;2022-07-06T03:18:27;18.70;90.50
8105;DHT22;4095;48.942;9.104;2022-07-06T03:20:53;18.70;90.60
8105;DHT22;4095;48.942;9.104;2022-07-06T03:23:18;18.70;90.70
8105;DHT22;4095;48.942;9.104;2022-07-06T03:25:44;18.70;90.40
8105;DHT22;4095;48.942;9.104;2022-07-06T03:28:10;18.70;90.50
8105;DHT22;4095;48.942;9.104;2022-07-06T03:30:36;18.70;90.50
8105;DHT22;4095;48.942;9.104;2022-07-06T03:33:01;18.70;90.70
8105;DHT22;4095;48.942;9.104;2022-07-06T03:35:27;18.70;90.60
8105;DHT22;4095;48.942;9.104;2022-07-06T03:37:52;18.70;90.60
8105;DHT22;4095;48.942;9.104;2022-07-06T03:40:18;18.70;90.80
8105;DHT22;4095;48.942;9.104;2022-07-06T03:42:43;18.70;90.70
8105;DHT22;4095;48.942;9.104;2022-07-06T03:45:09;18.70;90.80
8105;DHT22;4095;48.942;9.104;2022-07-06T03:47:35;18.60;90.80
8105;DHT22;4095;48.942;9.104;2022-07-06T03:50:01;18.60;90.90
8105;DHT22;4095;48.942;9.104;2022-07-06T03:52:26;18.60;90.90
8105;DHT22;4095;48.942;9.104;2022-07-06T03:54:52;18.60;91.00
8105;DHT22;4095;48.942;9.104;2022-07-06T03:57:17;18.60;91.10
8105;DHT22;4095;48.942;9.104;2022-07-06T03:59:43;18.60;91.10
8105;DHT22;4095;48.942;9.104;2022-07-06T04:02:09;18.60;91.00
8105;DHT22;4095;48.942;9.104;2022-07-06T04:04:34;18.60;90.90
8105;DHT22;4095;48.942;9.104;2022-07-06T04:07:00;18.50;91.10
8105;DHT22;4095;48.942;9.104;2022-07-06T04:09:25;18.50;91.40
8105;DHT22;4095;48.942;9.104;2022-07-06T04:11:52;18.60;91.30
8105;DHT22;4095;48.942;9.104;2022-07-06T04:14:17;18.50;91.30
8105;DHT22;4095;48.942;9.104;2022-07-06T04:16:43;18.60;91.50
8105;DHT22;4095;48.942;9.104;2022-07-06T04:19:09;18.60;91.60
8105;DHT22;4095;48.942;9.104;2022-07-06T04:21:35;18.60;91.60
8105;DHT22;4095;48.942;9.104;2022-07-06T04:24:00;18.60;91.60
8105;DHT22;4095;48.942;9.104;2022-07-06T04:26:26;18.60;91.40
8105;DHT22;4095;48.942;9.104;2022-07-06T04:28:51;18.60;91.60
8105;DHT22;4095;48.942;9.104;2022-07-06T04:31:17;18.60;91.60
8105;DHT22;4095;48.942;9.104;2022-07-06T04:33:43;18.60;91.70
8105;DHT22;4095;48.942;9.104;2022-07-06T04:36:09;18.60;91.80
8105;DHT22;4095;48.942;9.104;2022-07-06T04:38:35;18.70;91.80
8105;DHT22;4095;48.942;9.104;2022-07-06T04:41:01;18.70;91.80
8105;DHT22;4095;48.942;9.104;2022-07-06T04:43:26;18.80;91.90
8105;DHT22;4095;48.942;9.104;2022-07-06T04:45:52;18.80;91.90
8105;DHT22;4095;48.942;9.104;2022-07-06T04:48:18;18.80;92.00
8105;DHT22;4095;48.942;9.104;2022-07-06T04:50:43;18.80;92.00
8105;DHT22;4095;48.942;9.104;2022-07-06T04:53:09;18.80;91.80
8105;DHT22;4095;48.942;9.104;2022-07-06T04:55:34;18.80;91.80
8105;DHT22;4095;48.942;9.104;2022-07-06T04:58:00;18.90;91.80
8105;DHT22;4095;48.942;9.104;2022-07-06T05:00:26;18.90;92.00
8105;DHT22;4095;48.942;9.104;2022-07-06T05:02:51;18.90;92.00
8105;DHT22;4095;48.942;9.104;2022-07-06T05:05:17;19.00;91.90
8105;DHT22;4095;48.942;9.104;2022-07-06T05:07:43;19.00;92.10
8105;DHT22;4095;48.942;9.104;2022-07-06T05:10:10;19.00;91.90
8105;DHT22;4095;48.942;9.104;2022-07-06T05:12:36;19.10;92.10
8105;DHT22;4095;48.942;9.104;2022-07-06T05:15:02;19.10;92.00
8105;DHT22;4095;48.942;9.104;2022-07-06T05:17:28;19.10;92.00
8105;DHT22;4095;48.942;9.104;2022-07-06T05:19:54;19.20;91.80
8105;DHT22;4095;48.942;9.104;2022-07-06T05:22:19;19.20;91.90
8105;DHT22;4095;48.942;9.104;2022-07-06T05:24:45;19.20;92.00
8105;DHT22;4095;48.942;9.104;2022-07-06T05:27:11;19.20;91.90
8105;DHT22;4095;48.942;9.104;2022-07-06T05:29:36;19.30;91.90
8105;DHT22;4095;48.942;9.104;2022-07-06T05:32:02;19.30;92.10
8105;DHT22;4095;48.942;9.104;2022-07-06T05:34:28;19.30;92.10
8105;DHT22;4095;48.942;9.104;2022-07-06T05:36:54;19.40;91.90
8105;DHT22;4095;48.942;9.104;2022-07-06T05:39:19;19.50;92.00
8105;DHT22;4095;48.942;9.104;2022-07-06T05:41:46;19.40;91.90
8105;DHT22;4095;48.942;9.104;2022-07-06T05:44:12;19.50;92.10
8105;DHT22;4095;48.942;9.104;2022-07-06T05:46:38;19.50;92.00
8105;DHT22;4095;48.942;9.104;2022-07-06T05:49:03;19.50;92.10
8105;DHT22;4095;48.942;9.104;2022-07-06T05:51:58;19.60;92.00
8105;DHT22;4095;48.942;9.104;2022-07-06T05:54:24;19.60;92.00
8105;DHT22;4095;48.942;9.104;2022-07-06T05:56:49;19.70;92.00
8105;DHT22;4095;48.942;9.104;2022-07-06T05:59:15;19.80;91.90
8105;DHT22;4095;48.942;9.104;2022-07-06T06:01:40;19.80;91.80
8105;DHT22;4095;48.942;9.104;2022-07-06T06:04:06;19.90;91.70
8105;DHT22;4095;48.942;9.104;2022-07-06T06:06:32;19.90;91.50
8105;DHT22;4095;48.942;9.104;2022-07-06T06:08:58;20.00;91.50
8105;DHT22;4095;48.942;9.104;2022-07-06T06:11:23;20.00;91.20
8105;DHT22;4095;48.942;9.104;2022-07-06T06:13:49;20.10;91.70
8105;DHT22;4095;48.942;9.104;2022-07-06T06:16:15;20.10;91.30
8105;DHT22;4095;48.942;9.104;2022-07-06T06:18:41;20.20;91.40
8105;DHT22;4095;48.942;9.104;2022-07-06T06:21:06;20.20;91.30
8105;DHT22;4095;48.942;9.104;2022-07-06T06:23:32;20.30;91.20
8105;DHT22;4095;48.942;9.104;2022-07-06T06:25:58;20.30;91.00
8105;DHT22;4095;48.942;9.104;2022-07-06T06:28:23;20.30;91.30
8105;DHT22;4095;48.942;9.104;2022-07-06T06:30:49;20.40;91.30
8105;DHT22;4095;48.942;9.104;2022-07-06T06:33:17;20.40;91.30
8105;DHT22;4095;48.942;9.104;2022-07-06T06:35:45;20.50;91.50
8105;DHT22;4095;48.942;9.104;2022-07-06T06:38:11;20.60;90.40
8105;DHT22;4095;48.942;9.104;2022-07-06T06:40:37;20.60;90.50
8105;DHT22;4095;48.942;9.104;2022-07-06T06:43:03;20.70;90.40
8105;DHT22;4095;48.942;9.104;2022-07-06T06:45:29;20.80;90.40
8105;DHT22;4095;48.942;9.104;2022-07-06T06:47:54;20.80;90.30
8105;DHT22;4095;48.942;9.104;2022-07-06T06:50:20;20.90;90.50
8105;DHT22;4095;48.942;9.104;2022-07-06T06:52:46;21.00;88.90
8105;DHT22;4095;48.942;9.104;2022-07-06T06:55:12;21.00;88.80
8105;DHT22;4095;48.942;9.104;2022-07-06T06:57:37;21.00;89.50
8105;DHT22;4095;48.942;9.104;2022-07-06T07:00:04;21.10;89.60
8105;DHT22;4095;48.942;9.104;2022-07-06T07:02:30;21.20;89.40
8105;DHT22;4095;48.942;9.104;2022-07-06T07:04:56;21.20;89.30
8105;DHT22;4095;48.942;9.104;2022-07-06T07:07:21;21.20;87.80
8105;DHT22;4095;48.942;9.104;2022-07-06T07:09:47;21.20;91.40
8105;DHT22;4095;48.942;9.104;2022-07-06T07:12:12;21.30;91.80
8105;DHT22;4095;48.942;9.104;2022-07-06T07:14:40;21.30;92.90
8105;DHT22;4095;48.942;9.104;2022-07-06T07:17:06;21.30;90.10
8105;DHT22;4095;48.942;9.104;2022-07-06T07:19:32;21.40;91.80
8105;DHT22;4095;48.942;9.104;2022-07-06T07:21:57;21.30;90.20
8105;DHT22;4095;48.942;9.104;2022-07-06T07:24:23;21.40;91.10
8105;DHT22;4095;48.942;9.104;2022-07-06T07:26:48;21.50;90.90
8105;DHT22;4095;48.942;9.104;2022-07-06T07:29:14;21.50;90.20
8105;DHT22;4095;48.942;9.104;2022-07-06T07:31:40;21.60;91.20
8105;DHT22;4095;48.942;9.104;2022-07-06T07:34:05;21.60;90.80
8105;DHT22;4095;48.942;9.104;2022-07-06T07:36:31;21.70;91.30
8105;DHT22;4095;48.942;9.104;2022-07-06T07:38:56;21.70;90.30
8105;DHT22;4095;48.942;9.104;2022-07-06T07:41:22;21.70;90.60
8105;DHT22;4095;48.942;9.104;2022-07-06T07:43:47;21.80;90.80
8105;DHT22;4095;48.942;9.104;2022-07-06T07:46:13;21.90;90.10
8105;DHT22;4095;48.942;9.104;2022-07-06T07:48:39;21.90;88.20
8105;DHT22;4095;48.942;9.104;2022-07-06T07:51:04;21.90;88.90
8105;DHT22;4095;48.942;9.104;2022-07-06T07:53:30;22.00;90.40
8105;DHT22;4095;48.942;9.104;2022-07-06T07:55:55;22.00;89.80
8105;DHT22;4095;48.942;9.104;2022-07-06T07:58:21;22.10;89.50
8105;DHT22;4095;48.942;9.104;2022-07-06T08:00:46;22.10;88.90
8105;DHT22;4095;48.942;9.104;2022-07-06T08:03:12;22.10;89.30
8105;DHT22;4095;48.942;9.104;2022-07-06T08:05:38;22.20;88.40
8105;DHT22;4095;48.942;9.104;2022-07-06T08:08:04;22.20;88.70
8105;DHT22;4095;48.942;9.104;2022-07-06T08:10:30;22.30;88.40
8105;DHT22;4095;48.942;9.104;2022-07-06T08:12:56;22.30;86.80
8105;DHT22;4095;48.942;9.104;2022-07-06T08:15:21;22.20;87.00
8105;DHT22;4095;48.942;9.104;2022-07-06T08:17:47;22.30;87.60
8105;DHT22;4095;48.942;9.104;2022-07-06T08:20:13;22.30;87.60
8105;DHT22;4095;48.942;9.104;2022-07-06T08:22:39;22.40;86.30
8105;DHT22;4095;48.942;9.104;2022-07-06T08:25:05;22.40;87.00
8105;DHT22;4095;48.942;9.104;2022-07-06T08:27:31;22.40;86.60
8105;DHT22;4095;48.942;9.104;2022-07-06T08:29:57;22.50;85.60
8105;DHT22;4095;48.942;9.104;2022-07-06T08:32:22;22.60;87.70
8105;DHT22;4095;48.942;9.104;2022-07-06T08:34:48;22.60;84.70
8105;DHT22;4095;48.942;9.104;2022-07-06T08:37:14;22.60;86.20
8105;DHT22;4095;48.942;9.104;2022-07-06T08:39:39;22.60;86.40
8105;DHT22;4095;48.942;9.104;2022-07-06T08:42:07;22.70;88.00
8105;DHT22;4095;48.942;9.104;2022-07-06T08:44:36;22.80;87.40
8105;DHT22;4095;48.942;9.104;2022-07-06T08:47:04;22.90;87.30
8105;DHT22;4095;48.942;9.104;2022-07-06T08:49:31;23.00;84.80
8105;DHT22;4095;48.942;9.104;2022-07-06T08:51:57;23.10;85.10
8105;DHT22;4095;48.942;9.104;2022-07-06T08:54:23;23.10;85.40
8105;DHT22;4095;48.942;9.104;2022-07-06T08:56:50;23.20;84.90
8105;DHT22;4095;48.942;9.104;2022-07-06T08:59:16;23.20;87.20
8105;DHT22;4095;48.942;9.104;2022-07-06T09:01:43;23.40;87.80
8105;DHT22;4095;48.942;9.104;2022-07-06T09:04:12;23.50;86.40
8105;DHT22;4095;48.942;9.104;2022-07-06T09:06:42;23.60;86.40
8105;DHT22;4095;48.942;9.104;2022-07-06T09:09:09;23.60;85.40
8105;DHT22;4095;48.942;9.104;2022-07-06T09:11:35;23.70;85.30
8105;DHT22;4095;48.942;9.104;2022-07-06T09:14:03;23.80;84.80
8105;DHT22;4095;48.942;9.104;2022-07-06T09:16:29;23.80;83.90
8105;DHT22;4095;48.942;9.104;2022-07-06T09:18:55;23.70;85.10
8105;DHT22;4095;48.942;9.104;2022-07-06T09:21:27;23.70;83.50
8105;DHT22;4095;48.942;9.104;2022-07-06T09:23:54;23.60;84.00
8105;DHT22;4095;48.942;9.104;2022-07-06T09:26:20;23.70;85.00
8105;DHT22;4095;48.942;9.104;2022-07-06T09:28:46;23.80;83.40
8105;DHT22;4095;48.942;9.104;2022-07-06T09:31:12;23.90;84.50
8105;DHT22;4095;48.942;9.104;2022-07-06T09:33:38;23.90;83.80
8105;DHT22;4095;48.942;9.104;2022-07-06T09:36:04;23.90;83.10
8105;DHT22;4095;48.942;9.104;2022-07-06T09:38:31;23.90;83.50
8105;DHT22;4095;48.942;9.104;2022-07-06T09:40:57;23.80;84.70
8105;DHT22;4095;48.942;9.104;2022-07-06T09:43:24;23.90;85.90
8105;DHT22;4095;48.942;9.104;2022-07-06T09:45:52;24.00;84.10
8105;DHT22;4095;48.942;9.104;2022-07-06T09:48:19;24.10;85.50
8105;DHT22;4095;48.942;9.104;2022-07-06T09:50:50;24.20;83.10
8105;DHT22;4095;48.942;9.104;2022-07-06T09:53:20;24.20;83.70
8105;DHT22;4095;48.942;9.104;2022-07-06T09:55:50;24.30;84.00
8105;DHT22;4095;48.942;9.104;2022-07-06T09:58:16;24.40;82.30
8105;DHT22;4095;48.942;9.104;2022-07-06T10:00:46;24.40;83.80
8105;DHT22;4095;48.942;9.104;2022-07-06T10:03:13;24.50;81.50
8105;DHT22;4095;48.942;9.104;2022-07-06T10:05:42;24.50;82.30
8105;DHT22;4095;48.942;9.104;2022-07-06T10:08:09;24.70;82.90
8105;DHT22;4095;48.942;9.104;2022-07-06T10:10:36;24.70;82.00
8105;DHT22;4095;48.942;9.104;2022-07-06T10:13:03;24.70;82.30
8105;DHT22;4095;48.942;9.104;2022-07-06T10:15:29;24.80;81.40
8105;DHT22;4095;48.942;9.104;2022-07-06T10:18:03;24.80;81.60
8105;DHT22;4095;48.942;9.104;2022-07-06T10:20:32;24.90;82.70
8105;DHT22;4095;48.942;9.104;2022-07-06T10:23:01;24.90;82.00
8105;DHT22;4095;48.942;9.104;2022-07-06T10:25:28;24.80;80.50
8105;DHT22;4095;48.942;9.104;2022-07-06T10:27:55;25.00;84.00
8105;DHT22;4095;48.942;9.104;2022-07-06T10:30:21;25.00;80.80
8105;DHT22;4095;48.942;9.104;2022-07-06T10:32:48;25.00;80.90
8105;DHT22;4095;48.942;9.104;2022-07-06T10:35:16;24.80;80.20
8105;DHT22;4095;48.942;9.104;2022-07-06T10:37:43;24.80;81.70
8105;DHT22;4095;48.942;9.104;2022-07-06T10:40:12;24.80;82.50
8105;DHT22;4095;48.942;9.104;2022-07-06T10:42:59;24.90;80.50
8105;DHT22;4095;48.942;9.104;2022-07-06T10:48:16;25.00;80.40
8105;DHT22;4095;48.942;9.104;2022-07-06T10:50:46;25.00;82.90
8105;DHT22;4095;48.942;9.104;2022-07-06T10:53:17;25.20;81.60
8105;DHT22;4095;48.942;9.104;2022-07-06T10:55:46;25.20;79.70
8105;DHT22;4095;48.942;9.104;2022-07-06T10:58:13;25.10;79.50
8105;DHT22;4095;48.942;9.104;2022-07-06T11:00:53;25.00;81.50
8105;DHT22;4095;48.942;9.104;2022-07-06T11:03:44;25.10;81.30
8105;DHT22;4095;48.942;9.104;2022-07-06T11:08:55;24.90;79.80
8105;DHT22;4095;48.942;9.104;2022-07-06T11:16:28;25.10;82.20
8105;DHT22;4095;48.942;9.104;2022-07-06T11:21:44;25.00;80.10
8105;DHT22;4095;48.942;9.104;2022-07-06T11:24:23;25.00;79.30
8105;DHT22;4095;48.942;9.104;2022-07-06T11:26:51;25.00;79.60
8105;DHT22;4095;48.942;9.104;2022-07-06T11:29:19;24.90;79.10
8105;DHT22;4095;48.942;9.104;2022-07-06T11:31:49;25.00;80.10
8105;DHT22;4095;48.942;9.104;2022-07-06T11:34:23;25.00;80.40
8105;DHT22;4095;48.942;9.104;2022-07-06T11:36:57;25.00;80.10
8105;DHT22;4095;48.942;9.104;2022-07-06T11:39:30;25.00;80.20
8105;DHT22;4095;48.942;9.104;2022-07-06T11:41:57;25.00;80.50
8105;DHT22;4095;48.942;9.104;2022-07-06T11:44:23;24.90;79.40
8105;DHT22;4095;48.942;9.104;2022-07-06T11:46:49;24.90;78.40
8105;DHT22;4095;48.942;9.104;2022-07-06T11:49:15;25.00;79.00
8105;DHT22;4095;48.942;9.104;2022-07-06T11:51:42;25.10;77.80
8105;DHT22;4095;48.942;9.104;2022-07-06T11:54:13;25.10;77.10
8105;DHT22;4095;48.942;9.104;2022-07-06T11:56:50;25.20;78.80
8105;DHT22;4095;48.942;9.104;2022-07-06T11:59:30;25.20;77.90
8105;DHT22;4095;48.942;9.104;2022-07-06T12:02:06;25.10;78.00
8105;DHT22;4095;48.942;9.104;2022-07-06T12:04:34;25.20;78.70
8105;DHT22;4095;48.942;9.104;2022-07-06T12:07:12;25.30;78.00
8105;DHT22;4095;48.942;9.104;2022-07-06T12:09:40;25.40;79.60
8105;DHT22;4095;48.942;9.104;2022-07-06T12:12:07;25.50;79.20
8105;DHT22;4095;48.942;9.104;2022-07-06T12:14:35;25.60;78.40
8105;DHT22;4095;48.942;9.104;2022-07-06T12:17:09;25.60;78.30
8105;DHT22;4095;48.942;9.104;2022-07-06T12:19:36;25.70;76.00
8105;DHT22;4095;48.942;9.104;2022-07-06T12:22:03;25.70;77.10
8105;DHT22;4095;48.942;9.104;2022-07-06T12:24:30;25.70;75.50
8105;DHT22;4095;48.942;9.104;2022-07-06T12:26:58;25.70;75.30
8105;DHT22;4095;48.942;9.104;2022-07-06T12:29:24;25.70;76.00
8105;DHT22;4095;48.942;9.104;2022-07-06T12:31:50;25.80;76.90
8105;DHT22;4095;48.942;9.104;2022-07-06T12:34:29;25.90;77.20
8105;DHT22;4095;48.942;9.104;2022-07-06T12:37:06;25.90;75.60
8105;DHT22;4095;48.942;9.104;2022-07-06T12:39:32;25.70;76.40
8105;DHT22;4095;48.942;9.104;2022-07-06T12:42:02;25.60;75.60
8105;DHT22;4095;48.942;9.104;2022-07-06T12:44:29;25.60;75.10
8105;DHT22;4095;48.942;9.104;2022-07-06T12:47:08;25.60;76.00
8105;DHT22;4095;48.942;9.104;2022-07-06T12:49:35;25.60;75.00
8105;DHT22;4095;48.942;9.104;2022-07-06T12:54:36;25.50;74.80
8105;DHT22;4095;48.942;9.104;2022-07-06T12:57:13;25.40;74.60
8105;DHT22;4095;48.942;9.104;2022-07-06T12:59:56;25.40;75.10
8105;DHT22;4095;48.942;9.104;2022-07-06T13:05:00;25.50;74.50
8105;DHT22;4095;48.942;9.104;2022-07-06T13:07:27;25.60;75.20
8105;DHT22;4095;48.942;9.104;2022-07-06T13:09:54;25.70;76.10
8105;DHT22;4095;48.942;9.104;2022-07-06T13:12:20;25.70;75.20
8105;DHT22;4095;48.942;9.104;2022-07-06T13:14:47;25.70;74.20
8105;DHT22;4095;48.942;9.104;2022-07-06T13:17:13;25.70;74.10
8105;DHT22;4095;48.942;9.104;2022-07-06T13:19:39;25.70;74.40
8105;DHT22;4095;48.942;9.104;2022-07-06T13:22:04;25.60;73.80
8105;DHT22;4095;48.942;9.104;2022-07-06T13:24:30;25.50;73.00
8105;DHT22;4095;48.942;9.104;2022-07-06T13:26:56;25.40;73.50
8105;DHT22;4095;48.942;9.104;2022-07-06T13:29:22;25.30;72.90
8105;DHT22;4095;48.942;9.104;2022-07-06T13:31:48;25.30;74.40
8105;DHT22;4095;48.942;9.104;2022-07-06T13:34:14;25.30;72.90
8105;DHT22;4095;48.942;9.104;2022-07-06T13:36:39;25.20;72.20
8105;DHT22;4095;48.942;9.104;2022-07-06T13:39:06;25.20;74.30
8105;DHT22;4095;48.942;9.104;2022-07-06T13:41:32;25.20;74.90
8105;DHT22;4095;48.942;9.104;2022-07-06T13:43:58;25.20;75.70
8105;DHT22;4095;48.942;9.104;2022-07-06T13:46:27;25.20;74.20
8105;DHT22;4095;48.942;9.104;2022-07-06T13:48:53;25.20;74.20
8105;DHT22;4095;48.942;9.104;2022-07-06T13:51:19;25.20;73.00
8105;DHT22;4095;48.942;9.104;2022-07-06T13:53:45;25.10;72.30
8105;DHT22;4095;48.942;9.104;2022-07-06T13:56:11;25.00;73.80
8105;DHT22;4095;48.942;9.104;2022-07-06T13:58:37;25.00;74.90
8105;DHT22;4095;48.942;9.104;2022-07-06T14:01:03;25.00;75.20
8105;DHT22;4095;48.942;9.104;2022-07-06T14:03:29;25.10;74.80
8105;DHT22;4095;48.942;9.104;2022-07-06T14:05:59;25.10;76.30
8105;DHT22;4095;48.942;9.104;2022-07-06T14:08:26;25.10;73.30
8105;DHT22;4095;48.942;9.104;2022-07-06T14:10:52;25.00;71.90
8105;DHT22;4095;48.942;9.104;2022-07-06T14:13:19;25.00;72.50
8105;DHT22;4095;48.942;9.104;2022-07-06T14:15:44;25.00;73.30
8105;DHT22;4095;48.942;9.104;2022-07-06T14:18:10;24.90;71.30
8105;DHT22;4095;48.942;9.104;2022-07-06T14:20:36;25.00;72.90
8105;DHT22;4095;48.942;9.104;2022-07-06T14:23:01;25.00;72.30
8105;DHT22;4095;48.942;9.104;2022-07-06T14:25:27;24.90;72.40
8105;DHT22;4095;48.942;9.104;2022-07-06T14:27:53;25.00;75.00
8105;DHT22;4095;48.942;9.104;2022-07-06T14:30:18;25.00;73.20
8105;DHT22;4095;48.942;9.104;2022-07-06T14:32:44;25.00;73.90
8105;DHT22;4095;48.942;9.104;2022-07-06T14:35:11;25.00;73.20
8105;DHT22;4095;48.942;9.104;2022-07-06T14:37:36;25.00;74.00
8105;DHT22;4095;48.942;9.104;2022-07-06T14:40:02;25.00;73.30
8105;DHT22;4095;48.942;9.104;2022-07-06T14:42:28;25.00;72.40
8105;DHT22;4095;48.942;9.104;2022-07-06T14:44:54;25.00;71.50
8105;DHT22;4095;48.942;9.104;2022-07-06T14:47:20;25.00;72.90
8105;DHT22;4095;48.942;9.104;2022-07-06T14:49:46;25.00;73.90
8105;DHT22;4095;48.942;9.104;2022-07-06T14:52:12;25.00;74.30
8105;DHT22;4095;48.942;9.104;2022-07-06T14:54:38;25.00;71.40
8105;DHT22;4095;48.942;9.104;2022-07-06T14:57:04;25.00;73.30
8105;DHT22;4095;48.942;9.104;2022-07-06T14:59:33;24.90;70.80
8105;DHT22;4095;48.942;9.104;2022-07-06T15:01:58;24.90;70.20
8105;DHT22;4095;48.942;9.104;2022-07-06T15:04:24;24.90;71.80
8105;DHT22;4095;48.942;9.104;2022-07-06T15:06:49;24.90;74.20
8105;DHT22;4095;48.942;9.104;2022-07-06T15:09:15;24.90;71.00
8105;DHT22;4095;48.942;9.104;2022-07-06T15:11:41;24.90;72.00
8105;DHT22;4095;48.942;9.104;2022-07-06T15:14:07;24.90;69.90
8105;DHT22;4095;48.942;9.104;2022-07-06T15:16:33;24.90;73.60
8105;DHT22;4095;48.942;9.104;2022-07-06T15:18:59;24.90;74.50
8105;DHT22;4095;48.942;9.104;2022-07-06T15:21:24;24.90;72.20
8105;DHT22;4095;48.942;9.104;2022-07-06T15:23:50;24.90;73.10
8105;DHT22;4095;48.942;9.104;2022-07-06T15:26:16;24.90;70.20
8105;DHT22;4095;48.942;9.104;2022-07-06T15:28:41;24.90;72.70
8105;DHT22;4095;48.942;9.104;2022-07-06T15:31:07;24.80;71.60
8105;DHT22;4095;48.942;9.104;2022-07-06T15:33:33;24.80;74.00
8105;DHT22;4095;48.942;9.104;2022-07-06T15:35:58;24.80;73.30
8105;DHT22;4095;48.942;9.104;2022-07-06T15:38:24;24.80;71.20
8105;DHT22;4095;48.942;9.104;2022-07-06T15:40:49;24.80;73.60
8105;DHT22;4095;48.942;9.104;2022-07-06T15:43:21;24.70;72.70
8105;DHT22;4095;48.942;9.104;2022-07-06T15:45:47;24.70;72.80
8105;DHT22;4095;48.942;9.104;2022-07-06T15:48:13;24.70;73.00
8105;DHT22;4095;48.942;9.104;2022-07-06T15:50:38;24.70;70.50
8105;DHT22;4095;48.942;9.104;2022-07-06T15:53:04;24.60;73.30
8105;DHT22;4095;48.942;9.104;2022-07-06T15:55:30;24.60;70.50
8105;DHT22;4095;48.942;9.104;2022-07-06T15:57:56;24.70;71.90
8105;DHT22;4095;48.942;9.104;2022-07-06T16:00:22;24.60;71.30
8105;DHT22;4095;48.942;9.104;2022-07-06T16:02:48;24.60;69.50
8105;DHT22;4095;48.942;9.104;2022-07-06T16:05:14;24.60;71.50
8105;DHT22;4095;48.942;9.104;2022-07-06T16:07:40;24.60;71.30
8105;DHT22;4095;48.942;9.104;2022-07-06T16:10:06;24.60;73.20
8105;DHT22;4095;48.942;9.104;2022-07-06T16:12:32;24.60;70.50
8105;DHT22;4095;48.942;9.104;2022-07-06T16:14:57;24.60;69.10
8105;DHT22;4095;48.942;9.104;2022-07-06T16:17:23;24.60;70.10